createdAt,value
2023-05-06T00:00:30.760Z,97469.09
2023-05-06T00:03:00.750Z,97458.81
2023-05-06T00:05:28.712Z,97457.44
2023-05-06T00:07:56.490Z,97459.06
2023-05-06T00:10:26.492Z,97456.00
2023-05-06T00:12:54.318Z,97454.63
2023-05-06T00:15:22.867Z,97466.22
2023-05-06T00:17:50.840Z,97462.91
2023-05-06T00:20:18.661Z,97461.41
2023-05-06T00:22:46.939Z,97464.06
2023-05-06T00:25:14.806Z,97459.75
2023-05-06T00:27:44.080Z,97446.75
2023-05-06T00:30:27.268Z,97460.56
2023-05-06T00:32:55.212Z,97450.13
2023-05-06T00:35:26.365Z,97450.03
2023-05-06T00:37:58.731Z,97452.94
2023-05-06T00:40:27.031Z,97456.75
2023-05-06T00:42:56.323Z,97457.41
2023-05-06T00:45:26.658Z,97462.06
2023-05-06T00:47:55.497Z,97448.00
2023-05-06T00:50:23.960Z,97451.44
2023-05-06T00:52:53.023Z,97457.00
2023-05-06T00:55:21.762Z,97460.13
2023-05-06T00:57:50.596Z,97461.75
2023-05-06T01:00:21.856Z,97469.84
2023-05-06T01:02:50.208Z,97462.97
2023-05-06T01:05:20.898Z,97461.56
2023-05-06T01:07:57.557Z,97478.41
2023-05-06T01:10:34.335Z,97470.63
2023-05-06T01:13:08.655Z,97466.56
2023-05-06T01:15:45.918Z,97473.19
2023-05-06T01:18:18.927Z,97481.31
2023-05-06T01:20:49.653Z,97478.28
2023-05-06T01:23:20.078Z,97472.06
2023-05-06T01:25:48.522Z,97471.94
2023-05-06T01:28:16.440Z,97481.53
2023-05-06T01:30:54.794Z,97486.22
2023-05-06T01:33:30.587Z,97481.47
2023-05-06T01:36:09.164Z,97480.78
2023-05-06T01:38:43.567Z,97480.09
2023-05-06T01:41:16.424Z,97484.66
2023-05-06T01:43:46.618Z,97481.38
2023-05-06T01:46:19.413Z,97466.09
2023-05-06T01:48:50.589Z,97479.41
2023-05-06T01:51:18.843Z,97478.13
2023-05-06T01:53:48.030Z,97480.78
2023-05-06T01:56:16.608Z,97476.22
2023-05-06T01:58:45.044Z,97467.75
2023-05-06T02:01:13.099Z,97472.25
2023-05-06T02:03:41.203Z,97467.84
2023-05-06T02:06:09.655Z,97441.84
2023-05-06T02:08:37.452Z,97467.38
2023-05-06T02:11:06.839Z,97460.72
2023-05-06T02:13:35.359Z,97469.59
2023-05-06T02:16:03.331Z,97469.03
2023-05-06T02:18:31.031Z,97462.69
2023-05-06T02:20:59.323Z,97460.97
2023-05-06T02:23:27.161Z,97461.25
2023-05-06T02:25:55.363Z,97455.63
2023-05-06T02:28:25.030Z,97462.13
2023-05-06T02:30:56.960Z,97467.53
2023-05-06T02:33:25.466Z,97454.38
2023-05-06T02:35:53.195Z,97469.28
2023-05-06T02:38:24.689Z,97472.16
2023-05-06T02:41:00.776Z,97443.09
2023-05-06T02:43:32.568Z,97467.53
2023-05-06T02:46:00.540Z,97464.47
2023-05-06T02:48:28.889Z,97466.38
2023-05-06T02:50:57.293Z,97460.59
2023-05-06T02:53:25.373Z,97472.09
2023-05-06T02:55:53.606Z,97460.47
2023-05-06T02:58:24.582Z,97462.88
2023-05-06T03:00:56.201Z,97458.22
2023-05-06T03:03:24.677Z,97461.84
2023-05-06T03:05:53.484Z,97454.13
2023-05-06T03:08:22.319Z,97471.06
2023-05-06T03:10:52.821Z,97459.44
2023-05-06T03:13:21.525Z,97467.44
2023-05-06T03:15:58.481Z,97455.44
2023-05-06T03:18:26.325Z,97450.53
2023-05-06T03:20:54.426Z,97464.34
2023-05-06T03:23:28.364Z,97468.81
2023-05-06T03:25:56.800Z,97470.22
2023-05-06T03:28:28.795Z,97458.13
2023-05-06T03:30:58.289Z,97459.13
2023-05-06T03:33:27.022Z,97455.13
2023-05-06T03:35:55.558Z,97453.09
2023-05-06T03:38:24.271Z,97456.28
2023-05-06T03:40:52.330Z,97457.28
2023-05-06T03:43:21.964Z,97462.97
2023-05-06T03:45:50.071Z,97458.09
2023-05-06T03:48:19.697Z,97454.66
2023-05-06T03:50:48.705Z,97452.03
2023-05-06T03:53:16.712Z,97461.78
2023-05-06T03:55:48.107Z,97455.81
2023-05-06T03:58:19.250Z,97467.09
2023-05-06T04:00:50.245Z,97464.38
2023-05-06T04:03:20.705Z,97457.72
2023-05-06T04:05:50.792Z,97458.44
2023-05-06T04:08:20.038Z,97468.13
2023-05-06T04:10:50.623Z,97458.81
2023-05-06T04:13:20.054Z,97472.06
2023-05-06T04:15:48.042Z,97474.34
2023-05-06T04:18:19.028Z,97474.88
2023-05-06T04:20:49.904Z,97483.13
2023-05-06T04:23:17.868Z,97476.47
2023-05-06T04:25:48.940Z,97472.91
2023-05-06T04:28:18.149Z,97481.28
2023-05-06T04:30:47.026Z,97479.94
2023-05-06T04:33:15.134Z,97486.91
2023-05-06T04:35:54.761Z,97484.28
2023-05-06T04:38:25.098Z,97486.16
2023-05-06T04:40:53.428Z,97490.09
2023-05-06T04:43:21.183Z,97489.19
2023-05-06T04:45:50.681Z,97491.56
2023-05-06T04:48:19.869Z,97495.31
2023-05-06T04:50:47.989Z,97494.44
2023-05-06T04:53:18.485Z,97496.81
2023-05-06T04:55:46.326Z,97503.66
2023-05-06T04:58:14.253Z,97498.97
2023-05-06T05:00:42.835Z,97497.38
2023-05-06T05:03:10.684Z,97504.47
2023-05-06T05:05:38.923Z,97505.34
2023-05-06T05:08:07.226Z,97514.84
2023-05-06T05:10:36.653Z,97515.97
2023-05-06T05:13:05.306Z,97520.41
2023-05-06T05:15:33.177Z,97526.69
2023-05-06T05:18:01.226Z,97517.44
2023-05-06T05:20:29.713Z,97509.56
2023-05-06T05:22:57.492Z,97518.94
2023-05-06T05:25:25.907Z,97530.91
2023-05-06T05:27:55.539Z,97536.03
2023-05-06T05:30:23.783Z,97524.69
2023-05-06T05:32:52.147Z,97518.88
2023-05-06T05:35:20.624Z,97524.91
2023-05-06T05:37:49.222Z,97512.19
2023-05-06T05:40:17.213Z,97522.16
2023-05-06T05:42:45.448Z,97511.94
2023-05-06T05:45:14.726Z,97518.56
2023-05-06T05:47:42.611Z,97523.34
2023-05-06T05:50:11.212Z,97527.00
2023-05-06T05:52:39.389Z,97517.28
2023-05-06T05:55:08.368Z,97522.03
2023-05-06T05:57:37.399Z,97521.13
2023-05-06T06:00:06.073Z,97520.84
2023-05-06T06:02:35.771Z,97520.53
2023-05-06T06:05:04.351Z,97525.97
2023-05-06T06:07:32.303Z,97529.06
2023-05-06T06:10:01.785Z,97521.75
2023-05-06T06:12:30.048Z,97528.56
2023-05-06T06:14:57.858Z,97528.59
2023-05-06T06:17:25.963Z,97533.13
2023-05-06T06:19:57.552Z,97541.03
2023-05-06T06:22:26.455Z,97533.84
2023-05-06T06:24:54.826Z,97544.56
2023-05-06T06:27:23.922Z,97545.75
2023-05-06T06:29:51.806Z,97551.88
2023-05-06T06:32:22.014Z,97550.97
2023-05-06T06:34:50.452Z,97546.53
2023-05-06T06:37:19.700Z,97547.63
2023-05-06T06:39:47.870Z,97552.00
2023-05-06T06:42:16.322Z,97551.69
2023-05-06T06:44:44.236Z,97556.31
2023-05-06T06:47:12.510Z,97561.50
2023-05-06T06:49:40.825Z,97554.78
2023-05-06T06:52:09.160Z,97561.38
2023-05-06T06:54:40.127Z,97552.25
2023-05-06T06:57:08.806Z,97554.06
2023-05-06T06:59:37.370Z,97552.97
2023-05-06T07:02:05.562Z,97552.53
2023-05-06T07:04:34.737Z,97556.28
2023-05-06T07:07:02.801Z,97561.44
2023-05-06T07:09:30.832Z,97559.34
2023-05-06T07:12:01.526Z,97561.50
2023-05-06T07:14:29.452Z,97571.53
2023-05-06T07:16:57.302Z,97558.00
2023-05-06T07:19:25.835Z,97556.31
2023-05-06T07:21:53.751Z,97559.72
2023-05-06T07:24:22.432Z,97564.00
2023-05-06T07:26:50.999Z,97581.16
2023-05-06T07:29:20.837Z,97566.63
2023-05-06T07:31:48.910Z,97566.06
2023-05-06T07:34:17.559Z,97571.53
2023-05-06T07:36:45.929Z,97575.22
2023-05-06T07:39:15.317Z,97581.25
2023-05-06T07:41:43.510Z,97587.38
2023-05-06T07:44:11.583Z,97604.81
2023-05-06T07:46:42.306Z,97610.81
2023-05-06T07:49:13.009Z,97594.06
2023-05-06T07:51:42.984Z,97609.34
2023-05-06T07:54:11.275Z,97602.56
2023-05-06T07:56:39.603Z,97602.31
2023-05-06T07:59:08.336Z,97651.72
2023-05-06T08:01:36.324Z,97623.28
2023-05-06T08:04:08.333Z,97621.72
2023-05-06T08:06:38.308Z,97649.59
2023-05-06T08:09:08.220Z,97614.97
2023-05-06T08:11:37.385Z,97653.41
2023-05-06T08:14:08.485Z,97720.09
2023-05-06T08:16:37.106Z,97686.94
2023-05-06T08:19:06.956Z,97690.22
2023-05-06T08:21:35.775Z,97645.81
2023-05-06T08:24:03.733Z,97610.34
2023-05-06T08:26:32.326Z,97596.94
2023-05-06T08:29:03.662Z,97605.06
2023-05-06T08:31:31.942Z,97619.75
2023-05-06T08:34:00.630Z,97613.25
2023-05-06T08:36:30.012Z,97614.63
2023-05-06T08:38:57.921Z,97615.63
2023-05-06T08:41:27.936Z,97621.63
2023-05-06T08:43:56.309Z,97631.00
2023-05-06T08:46:25.128Z,97632.63
2023-05-06T08:48:54.229Z,97634.16
2023-05-06T08:51:29.340Z,97650.31
2023-05-06T08:54:01.902Z,97687.09
2023-05-06T08:56:32.167Z,97706.53
2023-05-06T08:59:01.522Z,97755.13
2023-05-06T09:01:30.085Z,97747.84
2023-05-06T09:03:59.855Z,97754.56
2023-05-06T09:06:27.854Z,97738.88
2023-05-06T09:08:55.824Z,97743.41
2023-05-06T09:11:28.328Z,97776.34
2023-05-06T09:14:13.161Z,97713.31
2023-05-06T09:16:44.421Z,97728.66
2023-05-06T09:19:13.348Z,97722.72
2023-05-06T09:21:43.788Z,97757.25
2023-05-06T09:24:14.248Z,97781.59
2023-05-06T09:26:45.437Z,97755.66
2023-05-06T09:29:14.413Z,97801.94
2023-05-06T09:31:43.897Z,97770.06
2023-05-06T09:34:12.901Z,97755.53
2023-05-06T09:36:41.077Z,97724.91
2023-05-06T09:39:09.955Z,97709.75
2023-05-06T09:41:38.980Z,97706.16
2023-05-06T09:44:08.829Z,97692.59
2023-05-06T09:46:37.509Z,97687.81
2023-05-06T09:49:06.183Z,97662.88
2023-05-06T09:51:34.590Z,97660.16
2023-05-06T09:54:03.570Z,97645.88
2023-05-06T09:56:32.348Z,97623.34
2023-05-06T09:59:04.613Z,97660.97
2023-05-06T10:01:37.639Z,97708.78
2023-05-06T10:04:10.031Z,97719.16
2023-05-06T10:06:43.983Z,97780.34
2023-05-06T10:09:12.209Z,97792.81
2023-05-06T10:11:40.825Z,97759.19
2023-05-06T10:14:09.968Z,97726.75
2023-05-06T10:16:41.426Z,97642.34
2023-05-06T10:19:10.533Z,97637.19
2023-05-06T10:21:41.687Z,97647.06
2023-05-06T10:24:13.640Z,97695.53
2023-05-06T10:26:47.091Z,97684.38
2023-05-06T10:29:15.897Z,97708.94
2023-05-06T10:31:53.584Z,97690.34
2023-05-06T10:34:24.086Z,97648.47
2023-05-06T10:36:57.026Z,97641.88
2023-05-06T10:39:25.518Z,97600.81
2023-05-06T10:41:53.634Z,97584.44
2023-05-06T10:44:59.700Z,97589.25
2023-05-06T10:47:29.213Z,97629.22
2023-05-06T10:50:23.054Z,97668.16
2023-05-06T10:52:53.483Z,97667.00
2023-05-06T10:55:29.852Z,97698.97
2023-05-06T10:58:01.413Z,97679.19
2023-05-06T11:00:32.887Z,97698.03
2023-05-06T11:03:06.962Z,97693.84
2023-05-06T11:05:49.304Z,97712.66
2023-05-06T11:08:23.834Z,97693.78
2023-05-06T11:10:52.796Z,97694.59
2023-05-06T11:13:23.595Z,97683.03
2023-05-06T11:15:52.511Z,97669.94
2023-05-06T11:18:46.169Z,97644.41
2023-05-06T11:21:41.878Z,97652.63
2023-05-06T11:24:12.393Z,97635.09
2023-05-06T11:26:43.019Z,97603.38
2023-05-06T11:29:11.822Z,97636.97
2023-05-06T11:31:44.711Z,97646.84
2023-05-06T11:34:20.440Z,97649.75
2023-05-06T11:36:54.148Z,97699.31
2023-05-06T11:39:23.539Z,97711.00
2023-05-06T11:41:54.137Z,97705.38
2023-05-06T11:44:26.778Z,97675.09
2023-05-06T11:46:58.621Z,97685.41
2023-05-06T11:49:29.090Z,97669.47
2023-05-06T11:51:58.151Z,97702.75
2023-05-06T11:54:27.708Z,97671.47
2023-05-06T11:56:57.887Z,97709.25
2023-05-06T11:59:31.807Z,97690.34
2023-05-06T12:02:01.950Z,97687.94
2023-05-06T12:04:38.938Z,97690.41
2023-05-06T12:07:08.407Z,97675.22
2023-05-06T12:09:37.680Z,97654.75
2023-05-06T12:12:07.693Z,97627.22
2023-05-06T12:14:37.238Z,97635.38
2023-05-06T12:17:06.147Z,97653.19
2023-05-06T12:19:36.615Z,97687.88
2023-05-06T12:22:18.118Z,97705.50
2023-05-06T12:24:46.641Z,97686.69
2023-05-06T12:27:14.610Z,97642.50
2023-05-06T12:29:53.438Z,97673.28
2023-05-06T12:32:21.938Z,97697.03
2023-05-06T12:34:51.389Z,97700.00
2023-05-06T12:37:30.316Z,97684.50
2023-05-06T12:40:08.222Z,97642.56
2023-05-06T12:42:39.947Z,97612.28
2023-05-06T12:45:17.703Z,97643.91
2023-05-06T12:47:56.361Z,97669.78
2023-05-06T12:50:38.227Z,97629.41
2023-05-06T12:53:11.620Z,97628.22
2023-05-06T12:55:45.444Z,97635.41
2023-05-06T12:58:26.624Z,97610.63
2023-05-06T13:00:54.771Z,97571.34
2023-05-06T13:03:23.100Z,97599.13
2023-05-06T13:05:52.927Z,97611.88
2023-05-06T13:08:21.447Z,97607.44
2023-05-06T13:10:50.611Z,97628.13
2023-05-06T13:13:20.100Z,97624.91
2023-05-06T13:15:53.889Z,97630.78
2023-05-06T13:18:23.255Z,97632.13
2023-05-06T13:20:53.893Z,97618.31
2023-05-06T13:23:22.626Z,97580.09
2023-05-06T13:26:03.742Z,97600.03
2023-05-06T13:28:37.132Z,97607.03
2023-05-06T13:31:09.652Z,97617.06
2023-05-06T13:33:38.059Z,97624.94
2023-05-06T13:36:08.193Z,97643.66
2023-05-06T13:38:37.157Z,97642.19
2023-05-06T13:41:05.352Z,97612.88
2023-05-06T13:43:33.482Z,97600.31
2023-05-06T13:46:01.944Z,97575.50
2023-05-06T13:48:29.925Z,97573.63
2023-05-06T13:50:58.174Z,97559.78
2023-05-06T13:53:27.816Z,97566.94
2023-05-06T13:55:55.858Z,97565.00
2023-05-06T13:58:23.998Z,97551.88
2023-05-06T14:00:52.395Z,97538.03
2023-05-06T14:03:44.122Z,97558.56
2023-05-06T14:06:52.147Z,97559.16
2023-05-06T14:09:21.674Z,97581.41
2023-05-06T14:12:39.955Z,97588.81
2023-05-06T14:15:09.409Z,97559.66
2023-05-06T14:17:38.794Z,97555.69
2023-05-06T14:20:09.016Z,97581.09
2023-05-06T14:22:37.941Z,97569.72
2023-05-06T14:35:27.592Z,97559.75
2023-05-06T14:37:55.511Z,97563.25
2023-05-06T14:40:24.380Z,97556.94
2023-05-06T14:42:53.577Z,97564.38
2023-05-06T14:45:23.863Z,97552.81
2023-05-06T14:47:52.240Z,97521.22
2023-05-06T14:50:20.194Z,97536.66
2023-05-06T14:52:48.633Z,97523.69
2023-05-06T14:55:16.917Z,97514.97
2023-05-06T14:57:44.923Z,97504.34
2023-05-06T15:00:14.929Z,97513.03
2023-05-06T15:02:44.586Z,97512.66
2023-05-06T15:05:13.272Z,97538.31
2023-05-06T15:07:41.738Z,97518.56
2023-05-06T15:10:10.770Z,97503.19
2023-05-06T15:12:38.770Z,97508.38
2023-05-06T15:15:08.357Z,97506.00
2023-05-06T15:17:36.986Z,97511.53
2023-05-06T15:20:08.720Z,97531.28
2023-05-06T15:22:39.543Z,97536.78
2023-05-06T15:25:12.386Z,97529.31
2023-05-06T15:27:45.190Z,97523.75
2023-05-06T15:30:13.481Z,97545.06
2023-05-06T15:32:41.497Z,97535.25
2023-05-06T15:35:11.630Z,97535.31
2023-05-06T15:37:39.828Z,97502.69
2023-05-06T15:40:11.042Z,97490.34
2023-05-06T15:42:41.018Z,97491.88
2023-05-06T15:45:09.752Z,97485.94
2023-05-06T15:47:37.732Z,97480.66
2023-05-06T15:50:16.565Z,97480.31
2023-05-06T15:52:54.581Z,97480.84
2023-05-06T15:55:25.115Z,97488.84
2023-05-06T15:57:54.720Z,97479.72
2023-05-06T16:00:22.810Z,97457.63
2023-05-06T16:02:54.247Z,97469.31
2023-05-06T16:05:22.288Z,97480.09
2023-05-06T16:07:50.290Z,97456.88
2023-05-06T16:10:20.369Z,97482.66
2023-05-06T16:12:48.577Z,97460.84
2023-05-06T16:15:16.650Z,97465.56
2023-05-06T16:17:45.014Z,97473.16
2023-05-06T16:20:14.236Z,97472.56
2023-05-06T16:22:42.762Z,97465.66
2023-05-06T16:25:10.997Z,97464.91
2023-05-06T16:27:40.666Z,97480.78
2023-05-06T16:30:10.587Z,97452.25
2023-05-06T16:32:39.001Z,97464.91
2023-05-06T16:35:07.523Z,97466.97
2023-05-06T16:37:36.087Z,97471.38
2023-05-06T16:40:04.689Z,97459.66
2023-05-06T16:42:32.981Z,97451.28
2023-05-06T16:45:03.715Z,97466.44
2023-05-06T16:47:32.197Z,97470.44
2023-05-06T16:50:01.376Z,97476.75
2023-05-06T16:52:30.923Z,97445.03
2023-05-06T16:54:59.293Z,97460.69
2023-05-06T16:57:27.633Z,97464.97
2023-05-06T16:59:56.958Z,97429.91
2023-05-06T17:02:27.052Z,97471.38
2023-05-06T17:04:55.235Z,97449.22
2023-05-06T17:07:24.013Z,97461.13
2023-05-06T17:09:53.023Z,97440.66
2023-05-06T17:12:24.157Z,97464.34
2023-05-06T17:14:52.315Z,97455.31
2023-05-06T17:17:25.148Z,97458.84
2023-05-06T17:19:55.631Z,97451.84
2023-05-06T17:22:25.735Z,97448.06
2023-05-06T17:24:54.967Z,97450.28
2023-05-06T17:27:23.277Z,97460.47
2023-05-06T17:29:51.526Z,97449.66
2023-05-06T17:32:20.644Z,97431.66
2023-05-06T17:34:48.800Z,97460.09
2023-05-06T17:37:18.084Z,97437.47
2023-05-06T17:39:47.671Z,97463.50
2023-05-06T17:42:16.066Z,97454.84
2023-05-06T17:44:44.164Z,97468.00
2023-05-06T17:47:13.067Z,97442.19
2023-05-06T17:49:41.507Z,97432.00
2023-05-06T17:52:09.678Z,97452.69
2023-05-06T17:54:39.704Z,97440.19
2023-05-06T17:57:08.119Z,97439.47
2023-05-06T17:59:36.821Z,97451.44
2023-05-06T18:02:05.183Z,97450.75
2023-05-06T18:04:33.219Z,97459.03
2023-05-06T18:07:01.485Z,97424.00
2023-05-06T18:09:30.481Z,97452.50
2023-05-06T18:12:01.229Z,97444.28
2023-05-06T18:14:29.305Z,97452.28
2023-05-06T18:16:59.003Z,97455.41
2023-05-06T18:19:26.964Z,97452.47
2023-05-06T18:21:55.055Z,97449.97
2023-05-06T18:24:23.928Z,97461.22
2023-05-06T18:26:52.415Z,97449.03
2023-05-06T18:29:22.856Z,97454.38
2023-05-06T18:31:51.583Z,97458.41
2023-05-06T18:34:20.153Z,97475.53
2023-05-06T18:36:48.365Z,97464.66
2023-05-06T18:39:17.075Z,97475.34
2023-05-06T18:41:45.263Z,97474.81
2023-05-06T18:44:13.856Z,97450.22
2023-05-06T18:46:43.850Z,97449.84
2023-05-06T18:49:14.322Z,97442.19
2023-05-06T18:51:43.395Z,97438.38
2023-05-06T18:54:16.164Z,97479.25
2023-05-06T18:56:45.727Z,97462.81
2023-05-06T18:59:15.123Z,97500.31
2023-05-06T19:01:48.160Z,97508.53
2023-05-06T19:04:19.307Z,97468.00
2023-05-06T19:06:50.954Z,97490.94
2023-05-06T19:09:24.706Z,97492.41
2023-05-06T19:11:53.863Z,97484.91
2023-05-06T19:14:24.897Z,97470.25
2023-05-06T19:16:56.329Z,97503.63
2023-05-06T19:19:25.404Z,97482.47
2023-05-06T19:21:54.405Z,97504.25
2023-05-06T19:24:23.158Z,97487.66
2023-05-06T19:26:55.404Z,97527.94
2023-05-06T19:29:24.842Z,97514.13
2023-05-06T19:31:58.438Z,97494.44
2023-05-06T19:34:27.255Z,97500.69
2023-05-06T19:36:55.710Z,97487.59
2023-05-06T19:39:24.422Z,97510.13
2023-05-06T19:41:53.861Z,97519.16
2023-05-06T19:44:22.170Z,97530.38
2023-05-06T19:46:55.741Z,97522.03
2023-05-06T19:49:24.443Z,97515.41
2023-05-06T19:51:52.876Z,97544.75
2023-05-06T19:54:22.882Z,97574.19
2023-05-06T19:56:51.315Z,97545.94
2023-05-06T19:59:19.534Z,97542.72
2023-05-06T20:01:48.624Z,97559.38
2023-05-06T20:04:18.405Z,97544.59
2023-05-06T20:06:46.536Z,97556.19
2023-05-06T20:09:15.291Z,97555.38
2023-05-06T20:11:43.680Z,97556.66
2023-05-06T20:14:12.015Z,97527.06
2023-05-06T20:16:42.050Z,97564.75
2023-05-06T20:19:11.592Z,97548.63
2023-05-06T20:21:42.082Z,97544.19
2023-05-06T20:24:10.791Z,97566.34
2023-05-06T20:26:42.571Z,97561.81
2023-05-06T20:29:13.573Z,97559.97
2023-05-06T20:31:47.804Z,97528.84
2023-05-06T20:34:30.367Z,97579.59
2023-05-06T20:37:04.521Z,97567.34
2023-05-06T20:39:44.136Z,97552.53
2023-05-06T20:42:20.618Z,97574.44
2023-05-06T20:44:50.608Z,97542.31
2023-05-06T20:47:22.814Z,97567.16
2023-05-06T20:49:59.072Z,97554.75
2023-05-06T20:52:36.618Z,97536.69
2023-05-06T20:55:06.006Z,97558.75
2023-05-06T20:57:35.183Z,97566.94
2023-05-06T21:00:12.404Z,97567.88
2023-05-06T21:02:42.240Z,97578.72
2023-05-06T21:05:16.475Z,97563.88
2023-05-06T21:07:48.039Z,97583.38
2023-05-06T21:10:16.297Z,97585.13
2023-05-06T21:12:58.267Z,97599.53
2023-05-06T21:15:29.769Z,97588.16
2023-05-06T21:18:13.861Z,97593.84
2023-05-06T21:20:44.454Z,97567.78
2023-05-06T21:23:24.011Z,97598.03
2023-05-06T21:25:55.776Z,97576.59
2023-05-06T21:28:24.841Z,97576.56
2023-05-06T21:31:00.556Z,97580.56
2023-05-06T21:33:42.376Z,97583.91
2023-05-06T21:36:14.483Z,97617.25
2023-05-06T21:38:45.109Z,97558.31
2023-05-06T21:41:13.507Z,97609.41
2023-05-06T21:43:45.413Z,97593.03
2023-05-06T21:46:21.010Z,97575.72
2023-05-06T21:49:19.376Z,97580.69
2023-05-06T21:51:53.172Z,97580.63
2023-05-06T21:54:26.025Z,97587.22
2023-05-06T21:56:59.972Z,97584.44
2023-05-06T21:59:32.964Z,97585.44
2023-05-06T22:02:07.791Z,97555.47
2023-05-06T22:04:37.197Z,97595.19
2023-05-06T22:07:05.833Z,97594.84
2023-05-06T22:09:37.959Z,97609.69
2023-05-06T22:12:11.737Z,97591.56
2023-05-06T22:14:41.804Z,97566.47
2023-05-06T22:17:19.685Z,97608.81
2023-05-06T22:20:04.919Z,97567.00
2023-05-06T22:22:34.055Z,97577.91
2023-05-06T22:25:11.706Z,97579.66
2023-05-06T22:27:47.325Z,97568.59
2023-05-06T22:30:28.461Z,97613.44
2023-05-06T22:33:04.065Z,97596.47
2023-05-06T22:35:34.646Z,97578.53
2023-05-06T22:38:12.930Z,97620.00
2023-05-06T22:40:45.472Z,97584.44
2023-05-06T22:43:16.526Z,97610.91
2023-05-06T22:45:45.407Z,97580.91
2023-05-06T22:48:31.766Z,97626.38
2023-05-06T22:51:07.172Z,97607.59
2023-05-06T22:53:39.267Z,97610.38
2023-05-06T22:56:22.196Z,97592.38
2023-05-06T22:58:59.803Z,97618.81
2023-05-06T23:01:32.513Z,97635.75
2023-05-06T23:04:09.887Z,97595.22
2023-05-06T23:06:41.371Z,97601.19
2023-05-06T23:09:22.784Z,97589.44
2023-05-06T23:11:55.374Z,97616.00
2023-05-06T23:14:24.841Z,97606.94
2023-05-06T23:16:53.710Z,97616.28
2023-05-06T23:19:27.058Z,97629.13
2023-05-06T23:22:09.218Z,97616.75
2023-05-06T23:24:42.316Z,97597.50
2023-05-06T23:27:15.168Z,97600.00
2023-05-06T23:30:07.116Z,97605.34
2023-05-06T23:32:44.260Z,97638.88
2023-05-06T23:35:16.444Z,97586.47
2023-05-06T23:37:49.022Z,97603.97
2023-05-06T23:40:17.595Z,97615.94
2023-05-06T23:42:53.970Z,97575.03
2023-05-06T23:45:23.331Z,97626.91
2023-05-06T23:47:52.909Z,97596.84
2023-05-06T23:50:24.211Z,97592.31
2023-05-06T23:52:56.602Z,97618.72
2023-05-06T23:55:26.841Z,97629.16
2023-05-06T23:57:56.787Z,97624.19
